Time;durP1;ratioP1;P1;durP2;ratioP2;P2;SDS_P1;SDS_P2;PMS_P1;PMS_P2;Temp;Humidity;BMP_temperature;BMP_pressure;BME280_temperature;BME280_humidity;BME280_pressure;Samples;Min_cycle;Max_cycle;Signal;HPM_P1;HPM_P2
2023/09/03 00:01:02;;;;;;;7.82;6.93;;;14.80;99.90;;;;;;5073585;28;20032;-70
2023/09/03 00:03:27;;;;;;;9.00;6.90;;;14.80;99.90;;;;;;5073436;28;20082;-70
2023/09/03 00:05:54;;;;;;;7.95;7.10;;;14.80;99.90;;;;;;5073481;28;20159;-70
2023/09/03 00:08:23;;;;;;;12.35;8.13;;;14.80;99.90;;;;;;5073384;28;20504;-70
2023/09/03 00:10:50;;;;;;;8.35;7.13;;;14.90;99.90;;;;;;5073358;28;20049;-70
2023/09/03 00:13:16;;;;;;;11.05;7.70;;;14.80;99.90;;;;;;5073345;28;20071;-70
2023/09/03 00:15:42;;;;;;;8.00;6.93;;;14.80;99.90;;;;;;5073159;28;20048;-70
2023/09/03 00:18:11;;;;;;;8.35;7.45;;;14.80;99.90;;;;;;5072681;28;20040;-70
2023/09/03 00:20:37;;;;;;;10.18;7.35;;;14.80;99.90;;;;;;5073114;28;20037;-70
2023/09/03 00:23:03;;;;;;;10.70;8.52;;;14.70;99.90;;;;;;5073307;28;20090;-70
2023/09/03 00:25:33;;;;;;;9.77;7.00;;;14.80;99.90;;;;;;5073007;28;20504;-70
2023/09/03 00:27:59;;;;;;;7.72;6.30;;;14.70;99.90;;;;;;5073077;28;20041;-70
2023/09/03 00:30:24;;;;;;;9.68;6.72;;;14.70;99.90;;;;;;5073245;28;20071;-70
2023/09/03 00:32:50;;;;;;;7.28;6.32;;;14.70;99.90;;;;;;5072906;28;20462;-70
2023/09/03 00:35:15;;;;;;;10.35;7.50;;;14.70;99.90;;;;;;5072781;28;20032;-70
2023/09/03 00:37:41;;;;;;;8.05;6.70;;;14.70;99.90;;;;;;5072721;28;20094;-70
2023/09/03 00:40:07;;;;;;;8.38;6.10;;;14.60;99.90;;;;;;5074270;28;20036;-70
2023/09/03 00:42:34;;;;;;;6.25;5.65;;;14.30;99.90;;;;;;5072719;28;20089;-70
2023/09/03 00:45:00;;;;;;;7.05;5.85;;;14.10;99.90;;;;;;5072579;28;20052;-70
2023/09/03 00:47:26;;;;;;;7.28;6.43;;;14.10;99.90;;;;;;5056245;28;20045;-70
2023/09/03 00:49:52;;;;;;;7.70;6.10;;;14.10;99.90;;;;;;5072573;28;20119;-70
2023/09/03 00:52:19;;;;;;;6.70;5.40;;;14.00;99.90;;;;;;5072781;28;20040;-70
2023/09/03 00:54:45;;;;;;;6.20;5.50;;;13.90;99.90;;;;;;5072376;28;20048;-70
2023/09/03 00:57:11;;;;;;;6.32;5.53;;;14.00;99.90;;;;;;5072346;28;20055;-70
2023/09/03 00:59:38;;;;;;;6.78;5.78;;;14.00;99.90;;;;;;5072386;28;20043;-70
2023/09/03 01:02:04;;;;;;;5.95;5.35;;;14.00;99.90;;;;;;5073562;28;20048;-70
2023/09/03 01:04:29;;;;;;;7.47;5.28;;;13.90;99.90;;;;;;5072254;28;20039;-70
2023/09/03 01:06:55;;;;;;;8.88;7.03;;;14.00;99.90;;;;;;5072332;28;20044;-70
2023/09/03 01:09:21;;;;;;;8.77;6.22;;;14.00;99.90;;;;;;5072255;28;20040;-70
2023/09/03 01:12:13;;;;;;;7.45;6.72;;;14.00;99.90;;;;;;5072242;28;20040;-70
2023/09/03 01:14:50;;;;;;;6.70;6.10;;;14.00;99.90;;;;;;5070079;28;20048;-70
2023/09/03 01:17:50;;;;;;;7.43;6.03;;;14.00;99.90;;;;;;5072108;28;20122;-70
2023/09/03 01:20:21;;;;;;;7.13;6.43;;;14.10;99.90;;;;;;5055456;28;20050;-70
2023/09/03 01:23:11;;;;;;;7.10;6.40;;;14.00;99.90;;;;;;5073334;28;20044;-70
2023/09/03 01:26:08;;;;;;;6.70;6.00;;;14.00;99.90;;;;;;5071991;28;20072;-70
2023/09/03 01:28:39;;;;;;;7.45;5.88;;;14.00;99.90;;;;;;5071993;28;20048;-70
2023/09/03 01:31:23;;;;;;;8.77;6.30;;;14.00;99.90;;;;;;5071401;28;20040;-70
2023/09/03 01:33:49;;;;;;;7.50;6.80;;;14.00;99.90;;;;;;5072155;28;20044;-70
2023/09/03 01:36:16;;;;;;;6.65;5.53;;;13.90;99.90;;;;;;5072079;28;20173;-70
2023/09/03 01:38:42;;;;;;;8.43;6.40;;;13.90;99.90;;;;;;5072123;28;20040;-70
2023/09/03 01:41:08;;;;;;;7.88;6.00;;;13.90;99.90;;;;;;5071867;28;20504;-70
2023/09/03 01:43:34;;;;;;;7.70;6.93;;;13.90;99.90;;;;;;5072049;28;20040;-70
2023/09/03 01:46:19;;;;;;;7.22;6.03;;;13.90;99.90;;;;;;5071827;28;20040;-70
2023/09/03 01:49:32;;;;;;;6.22;5.25;;;13.90;99.90;;;;;;5071849;28;20075;-71
2023/09/03 01:52:12;;;;;;;6.40;5.80;;;13.80;99.90;;;;;;5034502;28;20147;-71
2023/09/03 01:54:40;;;;;;;7.00;6.30;;;13.70;99.90;;;;;;5017716;28;20067;-70
2023/09/03 01:57:21;;;;;;;7.70;6.45;;;13.60;99.90;;;;;;5034144;28;20506;-70
2023/09/03 01:59:53;;;;;;;6.93;6.15;;;13.60;99.90;;;;;;5034221;28;20421;-70
2023/09/03 02:02:20;;;;;;;7.65;6.57;;;13.50;99.90;;;;;;5034090;28;20069;-70
2023/09/03 02:04:46;;;;;;;6.53;5.70;;;13.40;99.90;;;;;;5034291;28;20159;-70
2023/09/03 02:07:12;;;;;;;6.75;6.15;;;13.40;99.90;;;;;;5034068;28;20076;-70
2023/09/03 02:09:37;;;;;;;8.93;6.45;;;13.40;99.90;;;;;;5034065;28;20114;-70
2023/09/03 02:12:06;;;;;;;70.57;8.40;;;13.40;99.90;;;;;;5034019;28;20057;-70
2023/09/03 02:14:32;;;;;;;24.10;8.20;;;13.40;99.90;;;;;;5033852;28;20048;-70
2023/09/03 02:16:57;;;;;;;7.45;6.70;;;13.40;99.90;;;;;;5034118;28;20049;-70
2023/09/03 02:19:23;;;;;;;7.85;7.05;;;13.30;99.90;;;;;;5034017;28;20460;-70
2023/09/03 02:21:52;;;;;;;7.50;6.53;;;13.30;99.90;;;;;;5038943;28;20055;-70
2023/09/03 02:24:18;;;;;;;11.55;7.32;;;13.30;99.90;;;;;;5072874;28;20050;-70
2023/09/03 02:26:45;;;;;;;74.38;8.27;;;13.30;99.90;;;;;;5071427;28;20044;-70
2023/09/03 02:29:12;;;;;;;28.85;7.68;;;13.30;99.90;;;;;;5072887;28;20040;-70
2023/09/03 02:31:38;;;;;;;7.70;7.00;;;13.30;99.90;;;;;;5071626;28;20062;-70
2023/09/03 02:34:05;;;;;;;9.88;7.72;;;13.20;99.90;;;;;;5071263;28;20452;-70
2023/09/03 02:36:31;;;;;;;8.10;7.30;;;13.20;99.90;;;;;;5071267;28;20135;-70
2023/09/03 02:39:02;;;;;;;8.52;7.68;;;13.30;99.90;;;;;;5071286;28;20552;-70
2023/09/03 02:41:31;;;;;;;8.15;7.35;;;13.30;99.90;;;;;;5072095;28;20086;-70
2023/09/03 02:43:58;;;;;;;7.05;6.35;;;13.20;99.90;;;;;;5075162;28;20048;-70
2023/09/03 02:46:25;;;;;;;6.85;6.18;;;13.20;99.90;;;;;;5076212;28;20045;-70
2023/09/03 02:48:51;;;;;;;8.43;6.05;;;13.20;99.90;;;;;;5074932;28;20090;-70
2023/09/03 02:51:17;;;;;;;7.15;6.45;;;13.30;99.90;;;;;;5075095;28;20543;-70
2023/09/03 02:53:45;;;;;;;7.00;6.40;;;13.30;99.90;;;;;;5074728;28;20489;-70
2023/09/03 02:56:14;;;;;;;7.35;6.65;;;13.20;99.90;;;;;;5074679;28;20120;-70
2023/09/03 02:58:40;;;;;;;6.82;6.22;;;13.20;99.90;;;;;;5074742;28;20116;-70
2023/09/03 03:01:07;;;;;;;6.53;5.93;;;13.20;99.90;;;;;;5074666;28;20112;-70
2023/09/03 03:03:33;;;;;;;5.95;5.45;;;13.20;99.90;;;;;;5074581;28;20056;-70
2023/09/03 03:05:59;;;;;;;6.45;5.85;;;13.20;99.90;;;;;;5075864;28;20401;-70
2023/09/03 03:08:24;;;;;;;7.18;5.88;;;13.10;99.90;;;;;;5074786;28;20044;-70
2023/09/03 03:10:50;;;;;;;5.45;4.95;;;13.10;99.90;;;;;;5074485;28;20402;-70
2023/09/03 03:13:16;;;;;;;4.93;4.47;;;13.10;99.90;;;;;;5057606;28;20071;-70
2023/09/03 03:15:42;;;;;;;6.15;5.20;;;13.10;99.90;;;;;;5074284;28;20119;-70
2023/09/03 03:18:07;;;;;;;6.38;5.72;;;13.10;99.90;;;;;;5074343;28;20047;-70
2023/09/03 03:20:33;;;;;;;6.72;6.00;;;13.10;99.90;;;;;;5074354;28;20123;-70
2023/09/03 03:22:58;;;;;;;7.15;5.90;;;13.10;99.90;;;;;;5057652;28;20036;-70
2023/09/03 03:25:24;;;;;;;7.53;6.82;;;13.10;99.90;;;;;;5074454;28;20056;-70
2023/09/03 03:27:50;;;;;;;13.85;7.35;;;13.00;99.90;;;;;;5074255;28;20492;-70
2023/09/03 03:30:15;;;;;;;12.57;6.40;;;13.00;99.90;;;;;;5075423;28;20036;-70
2023/09/03 03:32:41;;;;;;;13.77;6.40;;;12.90;99.90;;;;;;5074184;28;20040;-70
2023/09/03 03:35:07;;;;;;;40.88;5.85;;;12.90;99.90;;;;;;5074042;28;20086;-70
2023/09/03 03:37:32;;;;;;;23.90;5.82;;;12.80;99.90;;;;;;5073982;28;20045;-70
2023/09/03 03:39:58;;;;;;;15.63;6.40;;;12.80;99.90;;;;;;5074035;28;20039;-70
2023/09/03 03:42:24;;;;;;;7.97;6.05;;;12.80;99.90;;;;;;5074243;28;20040;-70
2023/09/03 03:44:49;;;;;;;5.97;5.30;;;12.80;99.90;;;;;;5074135;28;20546;-70
2023/09/03 03:47:15;;;;;;;5.40;4.90;;;12.70;99.90;;;;;;5073964;28;20127;-70
2023/09/03 03:49:41;;;;;;;6.13;5.57;;;12.70;99.90;;;;;;5073858;28;20123;-70
2023/09/03 03:52:06;;;;;;;10.82;6.28;;;12.70;99.90;;;;;;5074034;28;20044;-70
2023/09/03 03:54:32;;;;;;;6.78;5.82;;;12.70;99.90;;;;;;5073054;28;20048;-70
2023/09/03 03:56:58;;;;;;;10.30;6.90;;;12.70;99.90;;;;;;5073586;28;20048;-70
2023/09/03 03:59:24;;;;;;;9.07;7.68;;;12.60;99.90;;;;;;5073648;28;20044;-70
2023/09/03 04:01:49;;;;;;;7.32;6.63;;;12.60;99.90;;;;;;5073575;28;20032;-70
2023/09/03 04:04:15;;;;;;;11.35;6.40;;;12.60;99.90;;;;;;5073482;28;20036;-70
2023/09/03 04:06:40;;;;;;;25.52;6.78;;;12.60;99.90;;;;;;5073504;28;20515;-70
2023/09/03 04:09:06;;;;;;;6.53;5.65;;;12.60;99.90;;;;;;5073421;28;20052;-70
2023/09/03 04:11:31;;;;;;;5.57;5.07;;;12.50;99.90;;;;;;5073699;28;20032;-70
2023/09/03 04:13:57;;;;;;;5.90;5.28;;;12.50;99.90;;;;;;5074402;28;20443;-70
2023/09/03 04:16:23;;;;;;;8.70;5.82;;;12.50;99.90;;;;;;5073391;28;20079;-70
2023/09/03 04:18:49;;;;;;;6.75;6.10;;;12.60;99.90;;;;;;5074862;28;20547;-70
2023/09/03 04:21:15;;;;;;;8.02;7.22;;;12.60;99.90;;;;;;5073436;28;20136;-70
2023/09/03 04:23:41;;;;;;;6.35;5.72;;;12.60;99.90;;;;;;5073094;28;20070;-70
2023/09/03 04:26:09;;;;;;;7.38;5.53;;;12.60;99.90;;;;;;5073342;28;20059;-70
2023/09/03 04:28:34;;;;;;;5.65;5.13;;;12.60;99.90;;;;;;5073051;28;20060;-70
2023/09/03 04:31:08;;;;;;;6.30;5.70;;;12.50;99.90;;;;;;5072988;28;20044;-70
2023/09/03 04:33:35;;;;;;;6.07;5.47;;;12.50;99.90;;;;;;5073127;28;20567;-70
2023/09/03 04:36:02;;;;;;;6.75;6.15;;;12.40;99.90;;;;;;5072818;28;20068;-70
2023/09/03 04:38:28;;;;;;;7.22;6.53;;;12.50;99.90;;;;;;5072838;28;20044;-70
2023/09/03 04:40:55;;;;;;;7.90;7.20;;;12.40;99.90;;;;;;5072774;28;20067;-70
2023/09/03 04:43:20;;;;;;;7.43;6.65;;;12.50;99.90;;;;;;5072720;28;20432;-70
2023/09/03 04:45:47;;;;;;;7.38;6.68;;;12.40;99.90;;;;;;5072586;28;20040;-70
2023/09/03 04:48:14;;;;;;;7.18;6.47;;;12.50;99.90;;;;;;5072879;28;20055;-70
2023/09/03 04:50:39;;;;;;;7.32;6.63;;;12.40;99.90;;;;;;5072603;28;20040;-70
2023/09/03 04:53:06;;;;;;;7.20;6.32;;;12.40;99.90;;;;;;5073817;28;20090;-70
2023/09/03 04:55:33;;;;;;;6.75;6.13;;;12.40;99.90;;;;;;5073966;28;20036;-70
2023/09/03 04:57:59;;;;;;;6.82;5.90;;;12.50;99.90;;;;;;5074439;28;20385;-70
2023/09/03 05:00:24;;;;;;;5.93;5.25;;;12.50;99.90;;;;;;5072668;28;20044;-70
2023/09/03 05:02:50;;;;;;;6.22;5.63;;;12.50;99.90;;;;;;5072389;28;20409;-70
2023/09/03 05:05:17;;;;;;;6.18;5.57;;;12.50;99.90;;;;;;5072207;28;20120;-70
2023/09/03 05:07:43;;;;;;;6.28;4.97;;;12.50;99.90;;;;;;5055708;28;20037;-70
2023/09/03 05:10:09;;;;;;;6.68;5.53;;;12.50;99.90;;;;;;5072259;28;20040;-70
2023/09/03 05:12:34;;;;;;;8.82;6.72;;;12.60;99.90;;;;;;5072346;28;20074;-70
2023/09/03 05:15:00;;;;;;;7.43;6.72;;;12.60;99.90;;;;;;5072164;28;20049;-70
2023/09/03 05:17:26;;;;;;;7.93;7.10;;;12.60;99.90;;;;;;5072087;28;20040;-70
2023/09/03 05:19:51;;;;;;;9.00;7.00;;;12.60;99.90;;;;;;5072185;28;20076;-70
2023/09/03 05:22:17;;;;;;;6.70;6.05;;;12.60;99.90;;;;;;5072392;28;20040;-70
2023/09/03 05:24:43;;;;;;;6.30;5.70;;;12.60;99.90;;;;;;5072036;28;20519;-70
2023/09/03 05:27:09;;;;;;;7.72;6.75;;;12.60;99.90;;;;;;5072351;28;20048;-70
2023/09/03 05:29:34;;;;;;;7.10;6.50;;;12.60;99.90;;;;;;5072008;28;20127;-70
2023/09/03 05:32:00;;;;;;;7.40;6.68;;;12.60;99.90;;;;;;5072010;28;20115;-70
2023/09/03 05:34:26;;;;;;;7.93;7.13;;;12.60;99.90;;;;;;5071873;28;20044;-70
2023/09/03 05:36:52;;;;;;;7.43;6.72;;;12.60;99.90;;;;;;5071903;28;20076;-70
2023/09/03 05:39:17;;;;;;;8.35;7.45;;;12.60;99.90;;;;;;5073396;28;20032;-70
2023/09/03 05:41:43;;;;;;;11.45;8.43;;;12.60;99.90;;;;;;5071862;28;20049;-70
2023/09/03 05:44:09;;;;;;;7.25;6.47;;;12.60;99.90;;;;;;5071847;28;20068;-70
2023/09/03 05:46:38;;;;;;;6.93;6.32;;;12.60;99.90;;;;;;5071834;28;20136;-70
2023/09/03 05:49:03;;;;;;;7.10;6.45;;;12.70;99.90;;;;;;5071788;28;20413;-70
2023/09/03 05:51:29;;;;;;;9.05;7.13;;;12.70;99.90;;;;;;5071771;28;20045;-70
2023/09/03 05:53:55;;;;;;;8.48;6.72;;;12.70;99.90;;;;;;5071705;28;20045;-70
2023/09/03 05:56:21;;;;;;;8.98;7.10;;;12.70;99.90;;;;;;5071648;28;20044;-70
2023/09/03 05:58:47;;;;;;;9.32;8.18;;;12.70;99.90;;;;;;5071961;28;20094;-70
2023/09/03 06:01:13;;;;;;;8.55;7.03;;;12.70;99.90;;;;;;5071705;28;20401;-70
2023/09/03 06:03:40;;;;;;;9.50;8.05;;;12.80;99.90;;;;;;5071597;28;20089;-70
2023/09/03 06:06:08;;;;;;;9.20;8.07;;;12.80;99.90;;;;;;5071641;28;20055;-70
2023/09/03 06:08:38;;;;;;;11.32;8.23;;;12.80;99.90;;;;;;5071621;28;20115;-70
2023/09/03 06:11:05;;;;;;;8.43;7.63;;;12.90;99.90;;;;;;5072822;28;20040;-70
2023/09/03 06:13:32;;;;;;;9.27;8.38;;;13.00;99.90;;;;;;5071289;28;20037;-70
2023/09/03 06:15:58;;;;;;;7.88;7.07;;;13.00;99.90;;;;;;5071478;28;20504;-70
2023/09/03 06:18:24;;;;;;;8.40;7.60;;;13.00;99.90;;;;;;5058910;28;20036;-70
2023/09/03 06:20:50;;;;;;;8.35;7.55;;;13.00;99.90;;;;;;5075762;28;20068;-70
2023/09/03 06:23:21;;;;;;;7.72;6.85;;;13.10;99.90;;;;;;5075483;28;20493;-70
2023/09/03 06:25:48;;;;;;;7.30;6.68;;;13.10;99.90;;;;;;5075377;28;20034;-70
2023/09/03 06:28:14;;;;;;;6.60;5.60;;;13.20;99.90;;;;;;5075662;28;20044;-70
2023/09/03 06:30:40;;;;;;;7.75;6.97;;;13.30;99.90;;;;;;5075561;28;20493;-70
2023/09/03 06:33:06;;;;;;;8.43;7.63;;;13.40;99.90;;;;;;5075226;28;20037;-70
2023/09/03 06:35:32;;;;;;;8.15;7.40;;;13.40;99.90;;;;;;5075387;28;20085;-70
2023/09/03 06:37:58;;;;;;;9.05;8.15;;;13.50;99.90;;;;;;5075120;28;20497;-70
2023/09/03 06:40:24;;;;;;;9.00;7.70;;;13.50;99.90;;;;;;5076403;28;20140;-70
2023/09/03 06:42:51;;;;;;;8.10;6.88;;;13.60;99.90;;;;;;5075052;28;20047;-70
2023/09/03 06:45:17;;;;;;;7.57;6.82;;;13.60;99.90;;;;;;5074929;28;20497;-70
2023/09/03 06:47:43;;;;;;;7.68;6.97;;;13.70;99.90;;;;;;5076499;28;20072;-70
2023/09/03 06:50:09;;;;;;;8.00;7.10;;;13.80;99.90;;;;;;5074949;28;20112;-70
2023/09/03 06:52:35;;;;;;;8.00;7.20;;;13.80;99.90;;;;;;5076132;28;20087;-70
2023/09/03 06:55:01;;;;;;;9.75;7.43;;;13.90;99.90;;;;;;5074793;28;20040;-70
2023/09/03 06:57:27;;;;;;;11.07;7.30;;;14.00;99.90;;;;;;5074791;28;20047;-70
2023/09/03 06:59:53;;;;;;;11.65;6.90;;;14.00;99.90;;;;;;5075156;28;20036;-70
2023/09/03 07:02:19;;;;;;;7.40;6.68;;;14.10;99.90;;;;;;5074990;28;20577;-70
2023/09/03 07:04:45;;;;;;;7.07;6.38;;;14.20;99.90;;;;;;5074640;28;20132;-70
2023/09/03 07:07:11;;;;;;;9.85;6.63;;;14.30;99.90;;;;;;5074612;28;20119;-70
2023/09/03 07:09:36;;;;;;;9.88;7.05;;;14.40;99.90;;;;;;5074546;28;20059;-70
2023/09/03 07:12:03;;;;;;;8.63;7.78;;;14.50;99.90;;;;;;5074603;28;20052;-70
2023/09/03 07:14:33;;;;;;;10.90;7.72;;;14.60;99.90;;;;;;5074362;28;20048;-70
2023/09/03 07:17:00;;;;;;;9.60;7.07;;;14.70;99.90;;;;;;5074397;28;20580;-70
2023/09/03 07:19:26;;;;;;;10.05;7.10;;;14.80;99.90;;;;;;5074417;28;20060;-70
2023/09/03 07:21:51;;;;;;;6.32;5.45;;;14.90;99.90;;;;;;5074675;28;20071;-70
2023/09/03 07:24:17;;;;;;;5.97;5.47;;;15.00;99.90;;;;;;5074558;28;20063;-73
2023/09/03 07:26:43;;;;;;;7.35;5.93;;;15.10;99.90;;;;;;5074297;28;20101;-74
2023/09/03 07:29:08;;;;;;;8.02;5.75;;;15.20;99.90;;;;;;5072891;28;20047;-74
2023/09/03 07:31:40;;;;;;;5.78;5.28;;;15.40;99.90;;;;;;5074481;28;20040;-74
2023/09/03 07:34:09;;;;;;;8.82;6.85;;;15.50;99.90;;;;;;5057448;28;20041;-73
2023/09/03 07:36:35;;;;;;;7.55;6.30;;;15.50;99.90;;;;;;5073988;28;20045;-74
2023/09/03 07:39:01;;;;;;;8.65;6.13;;;15.70;99.90;;;;;;5074049;28;20036;-75
2023/09/03 07:41:26;;;;;;;7.32;5.68;;;15.80;99.90;;;;;;5074230;28;20036;-70
2023/09/03 07:43:53;;;;;;;6.30;5.07;;;15.90;99.90;;;;;;5074439;28;20047;-70
2023/09/03 07:46:19;;;;;;;8.25;5.82;;;16.00;99.90;;;;;;5073991;28;20121;-70
2023/09/03 07:48:44;;;;;;;5.90;5.28;;;16.10;99.90;;;;;;5075109;28;20087;-70
2023/09/03 07:51:12;;;;;;;6.10;5.05;;;16.30;99.90;;;;;;5075333;28;20039;-70
2023/09/03 07:53:37;;;;;;;8.90;5.43;;;16.40;99.90;;;;;;5057313;28;20401;-70
2023/09/03 07:56:03;;;;;;;6.50;4.53;;;16.50;99.90;;;;;;5073909;28;20512;-70
2023/09/03 07:58:29;;;;;;;7.05;4.97;;;16.70;99.90;;;;;;5073656;28;20047;-70
2023/09/03 08:00:54;;;;;;;8.63;4.55;;;16.70;99.90;;;;;;5073636;28;20044;-70
2023/09/03 08:03:20;;;;;;;6.93;4.20;;;16.90;99.90;;;;;;5075099;28;20040;-70
2023/09/03 08:05:46;;;;;;;4.57;3.75;;;17.10;99.90;;;;;;5074733;28;20032;-70
2023/09/03 08:08:11;;;;;;;5.65;3.78;;;17.20;99.90;;;;;;5074735;28;20049;-70
2023/09/03 08:10:37;;;;;;;5.05;3.17;;;17.30;99.90;;;;;;5073710;28;20054;-70
2023/09/03 08:13:02;;;;;;;4.07;2.20;;;17.50;99.90;;;;;;5073561;28;20076;-70
2023/09/03 08:15:28;;;;;;;6.22;2.58;;;17.60;99.90;;;;;;5073252;28;20517;-70
2023/09/03 08:17:53;;;;;;;3.63;2.78;;;17.70;99.90;;;;;;5073242;28;20094;-70
2023/09/03 08:20:21;;;;;;;4.30;2.55;;;17.80;99.90;;;;;;5073289;28;20504;-70
2023/09/03 08:22:46;;;;;;;6.13;3.10;;;18.00;99.90;;;;;;5073293;28;20086;-70
2023/09/03 08:25:12;;;;;;;4.93;2.75;;;18.20;99.90;;;;;;5073088;28;20076;-70
2023/09/03 08:27:38;;;;;;;6.20;2.92;;;18.30;99.90;;;;;;5073350;28;20127;-70
2023/09/03 08:30:05;;;;;;;4.55;2.65;;;18.40;99.90;;;;;;5072987;28;20080;-70
2023/09/03 08:32:30;;;;;;;4.22;2.22;;;18.50;99.90;;;;;;5072967;28;20413;-70
2023/09/03 08:34:56;;;;;;;5.25;2.80;;;18.60;99.90;;;;;;5072883;28;20496;-70
2023/09/03 08:37:26;;;;;;;4.28;2.33;;;18.70;99.90;;;;;;5072812;28;20040;-70
2023/09/03 08:39:52;;;;;;;5.53;2.15;;;18.80;99.90;;;;;;5072732;28;20054;-70
2023/09/03 08:42:17;;;;;;;3.70;2.30;;;18.90;99.90;;;;;;5072992;28;20485;-71
2023/09/03 08:44:49;;;;;;;5.70;3.05;;;19.00;99.90;;;;;;5056325;28;20035;-71
2023/09/03 08:47:17;;;;;;;8.15;2.85;;;19.10;99.90;;;;;;5072934;28;20048;-71
2023/09/03 08:49:45;;;;;;;5.63;2.40;;;19.20;99.90;;;;;;5072915;28;20383;-70
2023/09/03 08:52:11;;;;;;;5.38;2.88;;;19.20;99.90;;;;;;5072851;28;20037;-70
2023/09/03 08:54:38;;;;;;;5.75;3.10;;;19.30;99.90;;;;;;5073773;28;20127;-70
2023/09/03 08:57:09;;;;;;;5.88;2.75;;;19.40;99.90;;;;;;5072454;28;20041;-70
2023/09/03 08:59:34;;;;;;;3.97;2.80;;;19.50;99.90;;;;;;5073278;28;20036;-70
2023/09/03 09:02:01;;;;;;;4.68;2.30;;;19.70;99.90;;;;;;5072375;28;20565;-70
2023/09/03 09:04:30;;;;;;;5.78;3.28;;;20.00;99.90;;;;;;5072298;28;20446;-71
2023/09/03 09:07:00;;;;;;;6.40;3.60;;;20.20;99.90;;;;;;5072655;28;20127;-71
2023/09/03 09:09:29;;;;;;;5.15;2.38;;;20.30;99.90;;;;;;5072302;28;20048;-71
2023/09/03 09:12:02;;;;;;;4.78;2.40;;;20.50;99.90;;;;;;5072491;28;20048;-71
2023/09/03 09:14:37;;;;;;;6.60;2.33;;;20.80;99.90;;;;;;5072020;28;20532;-71
2023/09/03 09:17:13;;;;;;;4.75;2.10;;;21.00;99.90;;;;;;5072227;28;20493;-71
2023/09/03 09:19:39;;;;;;;4.85;1.90;;;21.20;99.90;;;;;;5072246;28;20079;-71
2023/09/03 09:22:05;;;;;;;5.85;2.40;;;21.30;99.90;;;;;;5072142;28;20068;-70
2023/09/03 09:24:31;;;;;;;5.95;2.50;;;21.50;99.90;;;;;;5072080;28;20045;-70
2023/09/03 09:27:16;;;;;;;3.65;2.10;;;21.60;99.90;;;;;;5072349;28;20075;-70
2023/09/03 09:29:43;;;;;;;4.13;2.08;;;21.70;99.90;;;;;;5072070;28;20119;-70
2023/09/03 09:32:22;;;;;;;4.00;2.00;;;21.90;99.90;;;;;;5072203;28;20131;-70
2023/09/03 09:34:48;;;;;;;4.63;2.35;;;21.90;99.90;;;;;;5072012;28;20052;-70
2023/09/03 09:37:15;;;;;;;7.05;2.40;;;22.00;99.90;;;;;;5071895;28;20040;-70
2023/09/03 09:39:48;;;;;;;3.38;1.65;;;22.00;99.90;;;;;;5071865;28;20091;-70
2023/09/03 09:42:18;;;;;;;3.50;1.80;;;22.10;99.90;;;;;;5072135;28;20041;-71
2023/09/03 09:44:53;;;;;;;4.45;1.73;;;22.20;99.90;;;;;;5072476;28;20393;-71
2023/09/03 09:47:20;;;;;;;3.92;1.55;;;22.20;99.90;;;;;;5071759;28;20044;-71
2023/09/03 09:49:47;;;;;;;3.08;1.13;;;22.40;98.80;;;;;;5072095;28;20048;-71
2023/09/03 09:52:14;;;;;;;3.55;1.30;;;22.60;98.20;;;;;;5070957;28;20450;-71
2023/09/03 09:54:40;;;;;;;2.47;1.00;;;22.60;96.60;;;;;;5071685;28;20051;-70
2023/09/03 09:57:22;;;;;;;3.15;1.10;;;22.70;95.70;;;;;;5071740;28;20048;-70
2023/09/03 09:59:53;;;;;;;3.22;1.20;;;22.80;95.30;;;;;;5071638;28;20481;-70
2023/09/03 10:02:20;;;;;;;3.28;1.30;;;22.90;96.10;;;;;;5071895;28;20119;-70
2023/09/03 10:04:47;;;;;;;2.78;1.15;;;23.00;95.50;;;;;;5071532;28;20044;-70
2023/09/03 10:07:13;;;;;;;3.60;1.33;;;23.10;94.70;;;;;;5071602;28;20044;-70
2023/09/03 10:09:40;;;;;;;2.97;1.27;;;23.20;94.40;;;;;;5071572;28;20468;-70
2023/09/03 10:12:08;;;;;;;4.13;1.15;;;23.40;94.00;;;;;;5071822;28;20405;-70
2023/09/03 10:14:34;;;;;;;3.95;1.10;;;23.30;94.80;;;;;;5071336;28;20043;-70
2023/09/03 10:17:05;;;;;;;2.95;1.02;;;23.40;93.10;;;;;;5071558;28;20501;-70
2023/09/03 10:19:47;;;;;;;1.77;0.70;;;23.50;92.40;;;;;;5071789;28;20048;-70
2023/09/03 10:22:15;;;;;;;20.27;2.28;;;23.60;92.60;;;;;;5071769;28;20080;-70
2023/09/03 10:24:53;;;;;;;4.68;1.10;;;23.80;91.00;;;;;;5071422;28;20048;-70
2023/09/03 10:27:24;;;;;;;3.85;1.20;;;23.90;91.40;;;;;;5073248;28;20524;-70
2023/09/03 10:29:52;;;;;;;3.55;1.20;;;24.10;91.30;;;;;;5071490;28;20051;-70
2023/09/03 10:32:20;;;;;;;3.75;1.27;;;24.10;90.80;;;;;;5071411;28;20124;-70
2023/09/03 10:34:46;;;;;;;3.05;1.02;;;24.30;90.40;;;;;;5071276;28;20052;-71
2023/09/03 10:37:13;;;;;;;2.65;1.23;;;24.40;88.90;;;;;;5071243;28;20056;-70
2023/09/03 10:39:42;;;;;;;2.28;1.00;;;24.50;90.50;;;;;;5072534;28;20040;-70
2023/09/03 10:42:27;;;;;;;3.22;1.48;;;24.70;87.60;;;;;;5071287;28;20052;-71
2023/09/03 10:44:54;;;;;;;2.95;1.02;;;24.90;89.60;;;;;;5071202;28;20051;-70
2023/09/03 10:47:21;;;;;;;2.50;1.10;;;25.10;85.50;;;;;;5071175;28;20409;-70
2023/09/03 10:49:47;;;;;;;2.55;1.00;;;25.20;84.40;;;;;;5071157;28;20040;-70
2023/09/03 10:52:30;;;;;;;4.15;1.08;;;25.30;84.80;;;;;;5071144;28;20119;-70
2023/09/03 10:55:15;;;;;;;3.13;1.00;;;25.50;86.00;;;;;;5071332;28;20040;-70
2023/09/03 10:57:42;;;;;;;5.15;1.10;;;25.60;82.90;;;;;;5071057;28;20522;-71
2023/09/03 11:00:20;;;;;;;2.85;0.90;;;25.70;82.30;;;;;;5071130;28;20071;-71
2023/09/03 11:02:46;;;;;;;2.58;0.88;;;25.90;80.70;;;;;;5072419;28;20056;-71
2023/09/03 11:05:16;;;;;;;4.55;1.35;;;26.10;80.40;;;;;;5074639;28;20486;-70
2023/09/03 11:07:44;;;;;;;2.53;0.85;;;26.30;79.80;;;;;;5075765;28;20401;-71
2023/09/03 11:10:24;;;;;;;2.78;1.00;;;26.20;77.80;;;;;;5074840;28;20090;-70
2023/09/03 11:12:51;;;;;;;1.85;0.85;;;26.30;78.00;;;;;;5074431;28;20511;-70
2023/09/03 11:15:17;;;;;;;2.83;1.02;;;26.50;76.40;;;;;;5074570;28;20040;-71
2023/09/03 11:17:54;;;;;;;4.50;1.23;;;26.60;76.10;;;;;;5074363;28;20045;-74
2023/09/03 11:20:35;;;;;;;3.35;0.80;;;26.70;78.60;;;;;;5074380;28;20435;-71
2023/09/03 11:23:02;;;;;;;1.98;0.82;;;26.70;78.60;;;;;;5074346;28;20037;-70
2023/09/03 11:25:32;;;;;;;1.73;0.70;;;26.30;76.00;;;;;;5074462;28;20068;-70
2023/09/03 11:27:58;;;;;;;2.75;0.82;;;26.00;73.50;;;;;;5074247;28;20044;-70
2023/09/03 11:30:24;;;;;;;4.13;1.08;;;25.90;74.40;;;;;;5074235;28;20044;-70
2023/09/03 11:32:50;;;;;;;1.92;0.63;;;26.00;74.20;;;;;;5074437;28;20048;-70
2023/09/03 11:35:15;;;;;;;1.48;0.70;;;26.10;71.00;;;;;;5074091;28;20560;-70
2023/09/03 11:37:41;;;;;;;2.53;0.70;;;26.20;70.40;;;;;;5074114;28;20121;-70
2023/09/03 11:40:07;;;;;;;1.77;0.75;;;26.40;70.10;;;;;;5075269;28;20036;-70
2023/09/03 11:42:33;;;;;;;0.93;0.57;;;26.50;69.90;;;;;;5075255;28;20040;-70
2023/09/03 11:45:00;;;;;;;1.42;0.70;;;26.60;69.10;;;;;;5073852;28;20086;-70
2023/09/03 11:47:26;;;;;;;4.38;1.08;;;26.70;70.30;;;;;;5073845;28;20429;-70
2023/09/03 11:49:51;;;;;;;2.75;0.65;;;26.80;71.10;;;;;;5073804;28;20041;-70
2023/09/03 11:52:17;;;;;;;1.20;0.60;;;26.90;69.90;;;;;;5074049;28;20119;-70
2023/09/03 11:54:43;;;;;;;6.25;1.02;;;27.10;69.00;;;;;;5073823;28;20493;-70
2023/09/03 11:57:13;;;;;;;1.65;0.90;;;27.20;68.20;;;;;;5073670;28;20037;-70
2023/09/03 11:59:39;;;;;;;2.25;0.90;;;27.30;67.30;;;;;;5075224;28;20049;-70
2023/09/03 12:02:06;;;;;;;2.78;1.08;;;27.40;66.10;;;;;;5073609;28;20048;-70
2023/09/03 12:04:32;;;;;;;2.08;0.70;;;27.40;67.40;;;;;;5074777;28;20045;-70
2023/09/03 12:06:59;;;;;;;2.35;0.73;;;27.30;67.70;;;;;;5074833;28;20037;-70
2023/09/03 12:09:26;;;;;;;2.47;0.90;;;27.10;68.40;;;;;;5073492;28;20048;-70
2023/09/03 12:11:52;;;;;;;2.47;0.77;;;27.10;67.40;;;;;;5073958;28;20054;-70
2023/09/03 12:14:28;;;;;;;2.00;0.90;;;27.20;66.70;;;;;;5072886;28;20500;-70
2023/09/03 12:16:54;;;;;;;2.83;0.80;;;27.30;64.40;;;;;;5074501;28;20090;-70
2023/09/03 12:19:19;;;;;;;2.65;0.95;;;27.30;65.30;;;;;;5073540;28;20040;-70
2023/09/03 12:21:50;;;;;;;1.60;0.70;;;27.50;64.50;;;;;;5073219;28;20056;-70
2023/09/03 12:24:16;;;;;;;1.88;0.90;;;27.60;66.50;;;;;;5073393;28;20505;-70
2023/09/03 12:26:42;;;;;;;1.30;0.50;;;27.80;65.20;;;;;;5073112;28;20047;-69
2023/09/03 12:29:21;;;;;;;4.47;0.80;;;27.90;65.70;;;;;;5074140;28;20080;-68
2023/09/03 12:31:47;;;;;;;2.83;0.93;;;28.00;65.10;;;;;;5074253;28;20082;-68
2023/09/03 12:34:15;;;;;;;4.20;0.70;;;28.10;64.00;;;;;;5072886;28;20040;-68
2023/09/03 12:36:55;;;;;;;2.80;0.82;;;28.10;64.80;;;;;;5073075;28;20103;-68
2023/09/03 12:39:32;;;;;;;2.25;1.00;;;28.00;64.30;;;;;;5072814;28;20405;-68
2023/09/03 12:42:02;;;;;;;3.35;0.90;;;27.90;64.30;;;;;;5072738;28;20446;-68
2023/09/03 12:44:28;;;;;;;1.45;0.70;;;27.90;63.00;;;;;;5072853;28;20055;-68
2023/09/03 12:46:55;;;;;;;1.77;0.70;;;28.00;65.30;;;;;;5072957;28;20045;-67
2023/09/03 12:49:21;;;;;;;1.23;0.63;;;28.10;64.20;;;;;;5072771;28;20051;-67